Southern Ontario METAR Reports

CYSN - St.Catharines
Updated: 02/27/2017 5:00pm
Partly cloudy
Partly cloudy
 Wind from SW
Wind: SW 35 km/h
Temperature: 9°C
Wind Chill: 5°C
Dew Point: -3°C
Humidity: 43%
Barometer: 1024 hPa
Clouds: Partly cloudy
Visibility: 24 km
Cloud details: Partly cloudy 1829 m
2017/02/27 22:00 CYSN 272200Z 23019KT 15SM SCT060 09/M03 A3024 RMK SC3 SLP243
CYHM - Hamilton
Updated: 02/27/2017 5:00pm
Mostly cloudy
Mostly cloudy
 Wind from SW
Wind: SW 15 km/h
Temperature: 7°C
Wind Chill: 4°C
Dew Point: 0°C
Humidity: 61%
Barometer: 1023.4 hPa
Clouds: Mostly cloudy
Visibility: 24 km
Cloud details: Mostly cloudy 1250 m
2017/02/27 22:00 CYHM 272200Z 23008KT 180V250 15SM BKN041 07/M00 A3022 RMK SC7 SLP243
 
CYYZ - Toronto
Updated: 02/27/2017 5:00pm
Mostly cloudy
Mostly cloudy
 Wind from W
Wind: W 19 km/h, Gust: 28 km/h
Temperature: 8°C
Wind Chill: 4°C
Dew Point: -5°C
Humidity: 40%
Barometer: 1023.4 hPa
Clouds: Mostly cloudy
Visibility: 24 km
Cloud details: Few Clouds 1524 m
Mostly cloudy 1951 m
Mostly cloudy 2073 m
Mostly cloudy 7620 m
2017/02/27 22:00 CYYZ 272200Z 28010G15KT 15SM FEW050 BKN064 BKN068 BKN250 08/M05 A3022 RMK CU2SC3AC1CI1 CI TR SLP239
CYKF - Waterloo
Updated: 02/27/2017 5:00pm
Mostly cloudy
Mostly cloudy
 Wind from W
Wind: W 15 km/h
Temperature: 7°C
Wind Chill: 4°C
Dew Point: -6°C
Humidity: 39%
Barometer: 1022.7 hPa
Clouds: Mostly cloudy
Visibility: 14 km
Cloud details: Mostly cloudy 1676 m
2017/02/27 22:00 CYKF 272200Z AUTO 27008KT 9SM BKN055 07/M06 A3020 RMK SLP239
 
CYXU - London
Updated: 02/27/2017 5:00pm
Mostly cloudy
Mostly cloudy
 Wind from S
Wind: S 26 km/h
Temperature: 7°C
Wind Chill: 3°C
Dew Point: -2°C
Humidity: 53%
Barometer: 1022.7 hPa
Clouds: Mostly cloudy
Visibility: 24 km
Cloud details: Few Clouds 1067 m
Mostly cloudy 1585 m
2017/02/27 22:00 CYXU 272200Z 19014KT 15SM FEW035 BKN052 07/M02 A3020 RMK SF1CU5 SLP237
CYQG - Windsor
Updated: 02/27/2017 5:00pm
Mostly cloudy
Mostly cloudy
 Wind from S
Wind: S 22 km/h, Gust: 31 km/h
Temperature: 8°C
Wind Chill: 4°C
Dew Point: 1°C
Humidity: 62%
Barometer: 1022.4 hPa
Clouds: Mostly cloudy
Visibility: 24 km
Cloud details: Mostly cloudy 2774 m
2017/02/27 22:00 CYQG 272200Z 18012G17KT 15SM BKN091 08/01 A3019 RMK AC5 SLP230
 
CYZR - Sarnia
Updated: 02/27/2017 5:00pm
Mostly cloudy
Mostly cloudy
 Wind from SSW
Wind: SSW 20 km/h
Temperature: 9°C
Wind Chill: 6°C
Dew Point: -2°C
Humidity: 46%
Barometer: 1022 hPa
Clouds: Mostly cloudy
Visibility: 14 km
Cloud details: Few Clouds 1524 m
Mostly cloudy 1981 m
2017/02/27 22:00 CYZR 272200Z AUTO 21011KT 9SM FEW050 BKN065 09/M02 A3018 RMK SLP226
CYVV - Wiarton
Updated: 02/27/2017 5:00pm
Few Clouds
Few Clouds
 Wind from varies
Wind: varies 4 km/h
Temperature: 2°C
Dew Point: -7°C
Humidity: 52%
Barometer: 1023 hPa
Clouds: Few Clouds
Visibility: 24 km
Cloud details: Few Clouds 7620 m
2017/02/27 22:00 CYVV 272200Z VRB02KT 15SM FEW250 02/M07 A3021 RMK CI1 SLP240
 
CYPQ - Peterborough
Updated: 02/27/2017 5:00pm
Clear
Clear
 Wind from NW
Wind: NW 11 km/h
Temperature: 5°C
Wind Chill: 2°C
Dew Point: -2°C
Humidity: 61%
Barometer: 1023.4 hPa
Clouds: Clear
Visibility: 14 km
2017/02/27 22:00 CYPQ 272200Z AUTO 32006KT 9SM CLR 05/M02 A3022 RMK SLP243
CYTR - Trenton
Updated: 02/27/2017 5:00pm
Partly cloudy
Partly cloudy
 Wind from WSW
Wind: WSW 11 km/h
Temperature: 7°C
Wind Chill: 5°C
Dew Point: -3°C
Humidity: 49%
Barometer: 1024 hPa
Clouds: Partly cloudy
Visibility: 24 km
Cloud details: Few Clouds 1250 m
Few Clouds 2195 m
Partly cloudy 7620 m
2017/02/27 22:00 CYTR 272200Z 25006KT 15SM FEW041 FEW072 SCT250 07/M03 A3024 RMK CU1AC1CI2 SLP244